sensor_id;sensor_type;location;lat;lon;timestamp;P1;durP1;ratioP1;P2;durP2;ratioP2
7941;SDS011;4016;50.758;7.150;2023-03-01T00:00:37;5.93;;;5.00;;
7941;SDS011;4016;50.758;7.150;2023-03-01T00:05:43;6.67;;;4.73;;
7941;SDS011;4016;50.758;7.150;2023-03-01T00:10:45;7.13;;;5.50;;
7941;SDS011;4016;50.758;7.150;2023-03-01T00:15:45;6.53;;;5.83;;
7941;SDS011;4016;50.758;7.150;2023-03-01T00:20:50;8.73;;;5.83;;
7941;SDS011;4016;50.758;7.150;2023-03-01T00:25:52;8.83;;;5.20;;
7941;SDS011;4016;50.758;7.150;2023-03-01T00:30:53;8.70;;;5.37;;
7941;SDS011;4016;50.758;7.150;2023-03-01T00:35:53;5.33;;;4.80;;
7941;SDS011;4016;50.758;7.150;2023-03-01T00:40:54;5.90;;;5.33;;
7941;SDS011;4016;50.758;7.150;2023-03-01T00:45:54;6.80;;;5.17;;
7941;SDS011;4016;50.758;7.150;2023-03-01T00:50:55;6.17;;;5.57;;
7941;SDS011;4016;50.758;7.150;2023-03-01T00:55:56;7.23;;;5.00;;
7941;SDS011;4016;50.758;7.150;2023-03-01T01:00:58;9.47;;;6.10;;
7941;SDS011;4016;50.758;7.150;2023-03-01T01:05:58;5.57;;;5.10;;
7941;SDS011;4016;50.758;7.150;2023-03-01T01:10:59;7.77;;;5.60;;
7941;SDS011;4016;50.758;7.150;2023-03-01T01:16:02;7.33;;;5.70;;
7941;SDS011;4016;50.758;7.150;2023-03-01T01:21:04;6.20;;;5.57;;
7941;SDS011;4016;50.758;7.150;2023-03-01T01:26:07;6.63;;;4.63;;
7941;SDS011;4016;50.758;7.150;2023-03-01T01:31:13;6.30;;;5.73;;
7941;SDS011;4016;50.758;7.150;2023-03-01T01:36:14;6.67;;;5.27;;
7941;SDS011;4016;50.758;7.150;2023-03-01T01:41:14;8.00;;;5.70;;
7941;SDS011;4016;50.758;7.150;2023-03-01T01:46:25;6.27;;;5.67;;
7941;SDS011;4016;50.758;7.150;2023-03-01T01:51:35;6.00;;;5.40;;
7941;SDS011;4016;50.758;7.150;2023-03-01T01:56:38;9.43;;;5.63;;
7941;SDS011;4016;50.758;7.150;2023-03-01T02:01:41;6.53;;;5.77;;
7941;SDS011;4016;50.758;7.150;2023-03-01T02:06:43;7.10;;;5.00;;
7941;SDS011;4016;50.758;7.150;2023-03-01T02:11:50;6.93;;;5.37;;
7941;SDS011;4016;50.758;7.150;2023-03-01T02:16:53;6.40;;;5.17;;
7941;SDS011;4016;50.758;7.150;2023-03-01T02:21:56;9.20;;;4.87;;
7941;SDS011;4016;50.758;7.150;2023-03-01T02:27:30;5.63;;;5.07;;
7941;SDS011;4016;50.758;7.150;2023-03-01T02:32:56;8.93;;;5.83;;
7941;SDS011;4016;50.758;7.150;2023-03-01T02:38:02;8.07;;;5.70;;
7941;SDS011;4016;50.758;7.150;2023-03-01T02:43:06;7.97;;;5.70;;
7941;SDS011;4016;50.758;7.150;2023-03-01T02:48:10;4.90;;;4.40;;
7941;SDS011;4016;50.758;7.150;2023-03-01T02:53:17;7.57;;;5.37;;
7941;SDS011;4016;50.758;7.150;2023-03-01T02:58:25;6.43;;;5.40;;
7941;SDS011;4016;50.758;7.150;2023-03-01T03:03:26;7.23;;;4.80;;
7941;SDS011;4016;50.758;7.150;2023-03-01T03:08:26;6.30;;;5.33;;
7941;SDS011;4016;50.758;7.150;2023-03-01T03:13:26;6.30;;;5.10;;
7941;SDS011;4016;50.758;7.150;2023-03-01T03:18:28;5.77;;;4.93;;
7941;SDS011;4016;50.758;7.150;2023-03-01T03:23:28;9.57;;;4.53;;
7941;SDS011;4016;50.758;7.150;2023-03-01T03:28:30;8.87;;;5.53;;
7941;SDS011;4016;50.758;7.150;2023-03-01T03:33:31;6.70;;;5.27;;
7941;SDS011;4016;50.758;7.150;2023-03-01T03:38:32;4.73;;;4.23;;
7941;SDS011;4016;50.758;7.150;2023-03-01T03:43:33;7.67;;;5.77;;
7941;SDS011;4016;50.758;7.150;2023-03-01T03:48:36;6.80;;;4.73;;
7941;SDS011;4016;50.758;7.150;2023-03-01T03:53:38;6.23;;;4.67;;
7941;SDS011;4016;50.758;7.150;2023-03-01T03:58:39;8.97;;;4.73;;
7941;SDS011;4016;50.758;7.150;2023-03-01T04:03:40;7.57;;;5.33;;
7941;SDS011;4016;50.758;7.150;2023-03-01T04:08:41;5.10;;;4.60;;
7941;SDS011;4016;50.758;7.150;2023-03-01T04:13:42;5.37;;;4.40;;
7941;SDS011;4016;50.758;7.150;2023-03-01T04:18:42;4.97;;;4.40;;
7941;SDS011;4016;50.758;7.150;2023-03-01T04:23:42;5.40;;;4.50;;
7941;SDS011;4016;50.758;7.150;2023-03-01T04:28:43;4.27;;;3.97;;
7941;SDS011;4016;50.758;7.150;2023-03-01T04:33:51;6.57;;;4.77;;
7941;SDS011;4016;50.758;7.150;2023-03-01T04:38:53;5.83;;;4.87;;
7941;SDS011;4016;50.758;7.150;2023-03-01T04:43:54;7.80;;;5.07;;
7941;SDS011;4016;50.758;7.150;2023-03-01T04:48:54;6.60;;;5.93;;
7941;SDS011;4016;50.758;7.150;2023-03-01T04:53:54;5.10;;;4.70;;
7941;SDS011;4016;50.758;7.150;2023-03-01T04:58:55;6.23;;;4.77;;
7941;SDS011;4016;50.758;7.150;2023-03-01T05:03:55;6.10;;;5.43;;
7941;SDS011;4016;50.758;7.150;2023-03-01T05:08:56;5.67;;;4.50;;
7941;SDS011;4016;50.758;7.150;2023-03-01T05:13:56;6.33;;;5.53;;
7941;SDS011;4016;50.758;7.150;2023-03-01T05:18:57;7.67;;;5.57;;
7941;SDS011;4016;50.758;7.150;2023-03-01T05:23:57;7.53;;;4.47;;
7941;SDS011;4016;50.758;7.150;2023-03-01T05:28:58;5.57;;;4.77;;
7941;SDS011;4016;50.758;7.150;2023-03-01T05:33:58;5.97;;;4.97;;
7941;SDS011;4016;50.758;7.150;2023-03-01T05:38:59;5.00;;;4.50;;
7941;SDS011;4016;50.758;7.150;2023-03-01T05:43:59;5.50;;;5.00;;
7941;SDS011;4016;50.758;7.150;2023-03-01T05:49:00;4.33;;;3.93;;
7941;SDS011;4016;50.758;7.150;2023-03-01T05:54:00;4.43;;;3.93;;
7941;SDS011;4016;50.758;7.150;2023-03-01T05:59:01;8.57;;;4.33;;
7941;SDS011;4016;50.758;7.150;2023-03-01T06:04:02;5.43;;;4.90;;
7941;SDS011;4016;50.758;7.150;2023-03-01T06:09:04;9.10;;;5.40;;
7941;SDS011;4016;50.758;7.150;2023-03-01T06:14:07;6.37;;;5.20;;
7941;SDS011;4016;50.758;7.150;2023-03-01T06:19:08;8.87;;;4.77;;
7941;SDS011;4016;50.758;7.150;2023-03-01T06:24:08;6.47;;;4.47;;
7941;SDS011;4016;50.758;7.150;2023-03-01T06:29:09;8.87;;;4.93;;
7941;SDS011;4016;50.758;7.150;2023-03-01T06:34:09;8.27;;;4.90;;
7941;SDS011;4016;50.758;7.150;2023-03-01T06:39:13;5.13;;;4.57;;
7941;SDS011;4016;50.758;7.150;2023-03-01T06:44:13;5.03;;;4.53;;
7941;SDS011;4016;50.758;7.150;2023-03-01T06:49:14;5.83;;;5.23;;
7941;SDS011;4016;50.758;7.150;2023-03-01T06:54:16;5.83;;;4.77;;
7941;SDS011;4016;50.758;7.150;2023-03-01T06:59:17;8.80;;;4.73;;
7941;SDS011;4016;50.758;7.150;2023-03-01T07:04:18;6.70;;;5.67;;
7941;SDS011;4016;50.758;7.150;2023-03-01T07:09:18;8.07;;;5.83;;
7941;SDS011;4016;50.758;7.150;2023-03-01T07:14:19;7.97;;;6.83;;
7941;SDS011;4016;50.758;7.150;2023-03-01T07:19:20;7.33;;;6.30;;
7941;SDS011;4016;50.758;7.150;2023-03-01T07:24:22;9.80;;;6.10;;
7941;SDS011;4016;50.758;7.150;2023-03-01T07:29:22;9.17;;;7.30;;
7941;SDS011;4016;50.758;7.150;2023-03-01T07:34:23;8.17;;;5.50;;
7941;SDS011;4016;50.758;7.150;2023-03-01T07:39:24;12.50;;;7.53;;
7941;SDS011;4016;50.758;7.150;2023-03-01T07:44:24;11.17;;;6.33;;
7941;SDS011;4016;50.758;7.150;2023-03-01T07:49:25;8.67;;;7.07;;
7941;SDS011;4016;50.758;7.150;2023-03-01T07:54:26;6.90;;;5.27;;
7941;SDS011;4016;50.758;7.150;2023-03-01T07:59:26;8.33;;;7.47;;
7941;SDS011;4016;50.758;7.150;2023-03-01T08:04:29;7.90;;;5.87;;
7941;SDS011;4016;50.758;7.150;2023-03-01T08:09:29;9.53;;;8.60;;
7941;SDS011;4016;50.758;7.150;2023-03-01T08:14:30;12.10;;;7.80;;
7941;SDS011;4016;50.758;7.150;2023-03-01T08:19:31;9.03;;;6.37;;
7941;SDS011;4016;50.758;7.150;2023-03-01T08:24:33;9.00;;;6.80;;
7941;SDS011;4016;50.758;7.150;2023-03-01T08:29:33;9.73;;;7.27;;
7941;SDS011;4016;50.758;7.150;2023-03-01T08:34:34;10.87;;;7.60;;
7941;SDS011;4016;50.758;7.150;2023-03-01T08:39:35;9.63;;;7.93;;
7941;SDS011;4016;50.758;7.150;2023-03-01T08:44:36;12.27;;;7.73;;
7941;SDS011;4016;50.758;7.150;2023-03-01T08:49:36;9.17;;;6.60;;
7941;SDS011;4016;50.758;7.150;2023-03-01T08:54:36;9.43;;;7.07;;
7941;SDS011;4016;50.758;7.150;2023-03-01T08:59:37;13.23;;;8.33;;
7941;SDS011;4016;50.758;7.150;2023-03-01T09:04:37;10.87;;;7.70;;
7941;SDS011;4016;50.758;7.150;2023-03-01T09:09:38;8.90;;;7.20;;
7941;SDS011;4016;50.758;7.150;2023-03-01T09:14:38;10.80;;;8.37;;
7941;SDS011;4016;50.758;7.150;2023-03-01T09:19:41;9.27;;;7.57;;
7941;SDS011;4016;50.758;7.150;2023-03-01T09:24:41;11.20;;;7.67;;
7941;SDS011;4016;50.758;7.150;2023-03-01T09:29:42;12.97;;;8.90;;
7941;SDS011;4016;50.758;7.150;2023-03-01T09:34:42;8.83;;;7.13;;
7941;SDS011;4016;50.758;7.150;2023-03-01T09:40:05;11.43;;;7.40;;
7941;SDS011;4016;50.758;7.150;2023-03-01T09:45:11;11.60;;;7.57;;
7941;SDS011;4016;50.758;7.150;2023-03-01T09:50:24;8.73;;;6.43;;
7941;SDS011;4016;50.758;7.150;2023-03-01T09:55:32;8.13;;;6.27;;
7941;SDS011;4016;50.758;7.150;2023-03-01T10:00:40;13.13;;;7.07;;
7941;SDS011;4016;50.758;7.150;2023-03-01T10:05:48;10.20;;;6.67;;
7941;SDS011;4016;50.758;7.150;2023-03-01T10:10:57;8.97;;;7.40;;
7941;SDS011;4016;50.758;7.150;2023-03-01T10:16:04;8.40;;;6.23;;
7941;SDS011;4016;50.758;7.150;2023-03-01T10:21:15;9.83;;;6.80;;
7941;SDS011;4016;50.758;7.150;2023-03-01T10:26:35;8.13;;;6.30;;
7941;SDS011;4016;50.758;7.150;2023-03-01T10:31:51;10.27;;;6.53;;
7941;SDS011;4016;50.758;7.150;2023-03-01T10:36:54;9.33;;;6.40;;
7941;SDS011;4016;50.758;7.150;2023-03-01T10:42:51;7.97;;;6.57;;
7941;SDS011;4016;50.758;7.150;2023-03-01T10:47:34;9.63;;;5.87;;
7941;SDS011;4016;50.758;7.150;2023-03-01T10:52:35;9.27;;;6.50;;
7941;SDS011;4016;50.758;7.150;2023-03-01T10:57:38;7.50;;;6.10;;
7941;SDS011;4016;50.758;7.150;2023-03-01T11:02:40;11.30;;;6.60;;
7941;SDS011;4016;50.758;7.150;2023-03-01T11:13:15;7.23;;;5.80;;
7941;SDS011;4016;50.758;7.150;2023-03-01T11:18:21;10.13;;;6.67;;
7941;SDS011;4016;50.758;7.150;2023-03-01T11:23:26;10.53;;;6.67;;
7941;SDS011;4016;50.758;7.150;2023-03-01T11:28:29;8.93;;;6.43;;
7941;SDS011;4016;50.758;7.150;2023-03-01T11:38:43;9.13;;;6.73;;
7941;SDS011;4016;50.758;7.150;2023-03-01T12:21:38;8.70;;;6.30;;
7941;SDS011;4016;50.758;7.150;2023-03-01T12:32:25;5.77;;;5.00;;
7941;SDS011;4016;50.758;7.150;2023-03-01T12:42:55;6.87;;;4.90;;
7941;SDS011;4016;50.758;7.150;2023-03-01T12:48:31;5.70;;;4.50;;
7941;SDS011;4016;50.758;7.150;2023-03-01T12:53:45;6.80;;;5.20;;
7941;SDS011;4016;50.758;7.150;2023-03-01T12:58:54;7.83;;;5.23;;
7941;SDS011;4016;50.758;7.150;2023-03-01T13:19:31;5.63;;;4.87;;
7941;SDS011;4016;50.758;7.150;2023-03-01T13:34:46;5.90;;;4.97;;
7941;SDS011;4016;50.758;7.150;2023-03-01T13:39:51;6.03;;;4.63;;
7941;SDS011;4016;50.758;7.150;2023-03-01T13:44:52;6.13;;;4.50;;
7941;SDS011;4016;50.758;7.150;2023-03-01T13:50:02;6.17;;;4.90;;
7941;SDS011;4016;50.758;7.150;2023-03-01T13:55:05;7.67;;;5.60;;
7941;SDS011;4016;50.758;7.150;2023-03-01T14:05:26;6.97;;;5.80;;
7941;SDS011;4016;50.758;7.150;2023-03-01T14:10:29;7.83;;;5.57;;
7941;SDS011;4016;50.758;7.150;2023-03-01T14:15:42;6.97;;;5.03;;
7941;SDS011;4016;50.758;7.150;2023-03-01T14:21:08;6.23;;;5.00;;
7941;SDS011;4016;50.758;7.150;2023-03-01T14:26:08;6.80;;;5.33;;
7941;SDS011;4016;50.758;7.150;2023-03-01T14:36:38;5.40;;;4.63;;
7941;SDS011;4016;50.758;7.150;2023-03-01T14:41:38;9.03;;;5.33;;
7941;SDS011;4016;50.758;7.150;2023-03-01T14:46:39;8.23;;;5.23;;
7941;SDS011;4016;50.758;7.150;2023-03-01T14:51:42;6.57;;;5.13;;
7941;SDS011;4016;50.758;7.150;2023-03-01T14:56:47;5.77;;;4.50;;
7941;SDS011;4016;50.758;7.150;2023-03-01T15:01:47;6.43;;;4.73;;
7941;SDS011;4016;50.758;7.150;2023-03-01T15:06:52;5.70;;;4.50;;
7941;SDS011;4016;50.758;7.150;2023-03-01T15:11:54;5.27;;;4.13;;
7941;SDS011;4016;50.758;7.150;2023-03-01T15:16:55;4.73;;;4.00;;
7941;SDS011;4016;50.758;7.150;2023-03-01T15:21:56;5.03;;;4.20;;
7941;SDS011;4016;50.758;7.150;2023-03-01T15:27:00;6.53;;;4.20;;
7941;SDS011;4016;50.758;7.150;2023-03-01T15:32:23;4.87;;;4.17;;
7941;SDS011;4016;50.758;7.150;2023-03-01T15:37:40;4.30;;;3.90;;
7941;SDS011;4016;50.758;7.150;2023-03-01T15:42:47;6.33;;;4.27;;
7941;SDS011;4016;50.758;7.150;2023-03-01T15:47:48;5.00;;;4.00;;
7941;SDS011;4016;50.758;7.150;2023-03-01T15:52:51;6.13;;;3.97;;
7941;SDS011;4016;50.758;7.150;2023-03-01T15:58:00;6.87;;;4.00;;
7941;SDS011;4016;50.758;7.150;2023-03-01T16:03:22;3.97;;;3.43;;
7941;SDS011;4016;50.758;7.150;2023-03-01T16:08:23;5.70;;;4.00;;
7941;SDS011;4016;50.758;7.150;2023-03-01T16:13:23;6.47;;;4.57;;
7941;SDS011;4016;50.758;7.150;2023-03-01T16:18:26;6.40;;;4.80;;
7941;SDS011;4016;50.758;7.150;2023-03-01T16:23:26;6.03;;;4.70;;
7941;SDS011;4016;50.758;7.150;2023-03-01T16:28:27;5.50;;;4.70;;
7941;SDS011;4016;50.758;7.150;2023-03-01T16:33:31;6.97;;;5.30;;
7941;SDS011;4016;50.758;7.150;2023-03-01T16:38:32;6.00;;;4.23;;
7941;SDS011;4016;50.758;7.150;2023-03-01T16:43:33;7.23;;;4.70;;
7941;SDS011;4016;50.758;7.150;2023-03-01T16:48:33;6.93;;;4.70;;
7941;SDS011;4016;50.758;7.150;2023-03-01T16:53:34;6.17;;;4.50;;
7941;SDS011;4016;50.758;7.150;2023-03-01T16:58:39;7.23;;;4.93;;
7941;SDS011;4016;50.758;7.150;2023-03-01T17:03:40;5.13;;;4.50;;
7941;SDS011;4016;50.758;7.150;2023-03-01T17:08:41;6.03;;;4.57;;
7941;SDS011;4016;50.758;7.150;2023-03-01T17:13:42;5.37;;;4.17;;
7941;SDS011;4016;50.758;7.150;2023-03-01T17:18:43;7.17;;;5.10;;
7941;SDS011;4016;50.758;7.150;2023-03-01T17:23:44;6.67;;;4.37;;
7941;SDS011;4016;50.758;7.150;2023-03-01T17:28:46;8.37;;;5.03;;
7941;SDS011;4016;50.758;7.150;2023-03-01T17:33:50;4.90;;;4.50;;
7941;SDS011;4016;50.758;7.150;2023-03-01T17:38:51;7.20;;;4.70;;
7941;SDS011;4016;50.758;7.150;2023-03-01T17:43:51;6.53;;;4.87;;
7941;SDS011;4016;50.758;7.150;2023-03-01T17:48:52;6.47;;;4.63;;
7941;SDS011;4016;50.758;7.150;2023-03-01T17:53:52;8.50;;;4.43;;
7941;SDS011;4016;50.758;7.150;2023-03-01T17:58:52;6.43;;;4.50;;
7941;SDS011;4016;50.758;7.150;2023-03-01T18:03:53;6.07;;;4.20;;
7941;SDS011;4016;50.758;7.150;2023-03-01T18:08:54;6.57;;;4.90;;
7941;SDS011;4016;50.758;7.150;2023-03-01T18:13:55;6.17;;;4.70;;
7941;SDS011;4016;50.758;7.150;2023-03-01T18:18:55;5.50;;;4.57;;
7941;SDS011;4016;50.758;7.150;2023-03-01T18:23:56;6.50;;;4.53;;
7941;SDS011;4016;50.758;7.150;2023-03-01T18:28:58;5.37;;;4.20;;
7941;SDS011;4016;50.758;7.150;2023-03-01T18:34:00;7.10;;;4.70;;
7941;SDS011;4016;50.758;7.150;2023-03-01T18:39:02;7.43;;;5.07;;
7941;SDS011;4016;50.758;7.150;2023-03-01T18:44:04;6.60;;;4.63;;
7941;SDS011;4016;50.758;7.150;2023-03-01T18:49:06;5.57;;;4.70;;
7941;SDS011;4016;50.758;7.150;2023-03-01T18:54:07;7.33;;;4.70;;
7941;SDS011;4016;50.758;7.150;2023-03-01T18:59:12;6.77;;;5.10;;
7941;SDS011;4016;50.758;7.150;2023-03-01T19:04:13;8.67;;;5.50;;
7941;SDS011;4016;50.758;7.150;2023-03-01T19:09:14;10.27;;;4.97;;
7941;SDS011;4016;50.758;7.150;2023-03-01T19:14:15;7.27;;;5.60;;
7941;SDS011;4016;50.758;7.150;2023-03-01T19:19:16;7.47;;;4.80;;
7941;SDS011;4016;50.758;7.150;2023-03-01T19:24:18;7.37;;;5.13;;
7941;SDS011;4016;50.758;7.150;2023-03-01T19:29:19;6.77;;;5.57;;
7941;SDS011;4016;50.758;7.150;2023-03-01T19:34:21;7.17;;;5.60;;
7941;SDS011;4016;50.758;7.150;2023-03-01T19:39:24;9.10;;;5.83;;
7941;SDS011;4016;50.758;7.150;2023-03-01T19:44:26;10.10;;;5.70;;
7941;SDS011;4016;50.758;7.150;2023-03-01T19:49:27;8.03;;;4.93;;
7941;SDS011;4016;50.758;7.150;2023-03-01T19:54:29;10.20;;;6.47;;
7941;SDS011;4016;50.758;7.150;2023-03-01T19:59:30;7.00;;;5.37;;
7941;SDS011;4016;50.758;7.150;2023-03-01T20:04:31;8.63;;;5.60;;
7941;SDS011;4016;50.758;7.150;2023-03-01T20:09:31;7.10;;;5.53;;
7941;SDS011;4016;50.758;7.150;2023-03-01T20:14:32;5.93;;;5.07;;
7941;SDS011;4016;50.758;7.150;2023-03-01T20:19:32;13.43;;;6.30;;
7941;SDS011;4016;50.758;7.150;2023-03-01T20:24:33;9.07;;;6.00;;
7941;SDS011;4016;50.758;7.150;2023-03-01T20:29:34;7.77;;;5.07;;
7941;SDS011;4016;50.758;7.150;2023-03-01T20:34:36;7.30;;;5.33;;
7941;SDS011;4016;50.758;7.150;2023-03-01T20:39:38;11.00;;;6.70;;
7941;SDS011;4016;50.758;7.150;2023-03-01T20:44:39;8.73;;;6.40;;
7941;SDS011;4016;50.758;7.150;2023-03-01T20:49:43;11.07;;;6.77;;
7941;SDS011;4016;50.758;7.150;2023-03-01T20:54:44;10.87;;;6.30;;
7941;SDS011;4016;50.758;7.150;2023-03-01T20:59:45;13.27;;;7.13;;
7941;SDS011;4016;50.758;7.150;2023-03-01T21:04:47;11.10;;;6.63;;
7941;SDS011;4016;50.758;7.150;2023-03-01T21:09:48;8.67;;;6.07;;
7941;SDS011;4016;50.758;7.150;2023-03-01T21:14:49;11.83;;;6.73;;
7941;SDS011;4016;50.758;7.150;2023-03-01T21:19:49;9.63;;;6.37;;
7941;SDS011;4016;50.758;7.150;2023-03-01T21:24:50;6.77;;;5.53;;
7941;SDS011;4016;50.758;7.150;2023-03-01T21:29:52;9.10;;;5.70;;
7941;SDS011;4016;50.758;7.150;2023-03-01T21:34:53;9.67;;;6.27;;
7941;SDS011;4016;50.758;7.150;2023-03-01T21:39:54;9.90;;;6.57;;
7941;SDS011;4016;50.758;7.150;2023-03-01T21:44:56;9.60;;;6.10;;
7941;SDS011;4016;50.758;7.150;2023-03-01T21:49:56;10.80;;;8.00;;
7941;SDS011;4016;50.758;7.150;2023-03-01T21:54:56;11.53;;;7.03;;
7941;SDS011;4016;50.758;7.150;2023-03-01T22:00:01;12.23;;;7.73;;
7941;SDS011;4016;50.758;7.150;2023-03-01T22:05:03;11.53;;;6.57;;
7941;SDS011;4016;50.758;7.150;2023-03-01T22:10:05;9.87;;;7.30;;
7941;SDS011;4016;50.758;7.150;2023-03-01T22:15:06;16.40;;;9.17;;
7941;SDS011;4016;50.758;7.150;2023-03-01T22:20:08;16.60;;;10.63;;
7941;SDS011;4016;50.758;7.150;2023-03-01T22:25:09;13.57;;;8.20;;
7941;SDS011;4016;50.758;7.150;2023-03-01T22:30:11;13.60;;;7.67;;
7941;SDS011;4016;50.758;7.150;2023-03-01T22:35:11;9.67;;;6.97;;
7941;SDS011;4016;50.758;7.150;2023-03-01T22:40:12;9.77;;;7.50;;
7941;SDS011;4016;50.758;7.150;2023-03-01T22:45:12;14.20;;;8.17;;
7941;SDS011;4016;50.758;7.150;2023-03-01T22:50:13;9.63;;;7.63;;
7941;SDS011;4016;50.758;7.150;2023-03-01T22:55:14;9.63;;;6.47;;
7941;SDS011;4016;50.758;7.150;2023-03-01T23:00:14;10.40;;;6.60;;
7941;SDS011;4016;50.758;7.150;2023-03-01T23:05:15;10.67;;;6.27;;
7941;SDS011;4016;50.758;7.150;2023-03-01T23:10:15;10.37;;;6.57;;
7941;SDS011;4016;50.758;7.150;2023-03-01T23:15:16;10.37;;;7.63;;
7941;SDS011;4016;50.758;7.150;2023-03-01T23:20:16;11.13;;;7.57;;
7941;SDS011;4016;50.758;7.150;2023-03-01T23:25:17;9.63;;;7.53;;
7941;SDS011;4016;50.758;7.150;2023-03-01T23:30:17;11.97;;;7.47;;
7941;SDS011;4016;50.758;7.150;2023-03-01T23:35:18;9.70;;;6.77;;
7941;SDS011;4016;50.758;7.150;2023-03-01T23:40:18;10.17;;;6.97;;
7941;SDS011;4016;50.758;7.150;2023-03-01T23:45:19;9.50;;;6.43;;
7941;SDS011;4016;50.758;7.150;2023-03-01T23:50:19;7.73;;;6.10;;
7941;SDS011;4016;50.758;7.150;2023-03-01T23:55:20;7.53;;;6.10;;
